sensor_id;sensor_type;location;lat;lon;timestamp;P1;durP1;ratioP1;P2;durP2;ratioP2
67737;SDS011;54534;43.612;1.572;2023-04-16T00:01:47;8.00;;;1.50;;
67737;SDS011;54534;43.612;1.572;2023-04-16T00:04:12;4.43;;;1.73;;
67737;SDS011;54534;43.612;1.572;2023-04-16T00:06:38;5.43;;;1.70;;
67737;SDS011;54534;43.612;1.572;2023-04-16T00:09:03;2.50;;;1.80;;
67737;SDS011;54534;43.612;1.572;2023-04-16T00:11:28;4.63;;;1.87;;
67737;SDS011;54534;43.612;1.572;2023-04-16T00:13:54;2.23;;;1.30;;
67737;SDS011;54534;43.612;1.572;2023-04-16T00:16:19;3.90;;;1.60;;
67737;SDS011;54534;43.612;1.572;2023-04-16T00:18:45;3.57;;;1.40;;
67737;SDS011;54534;43.612;1.572;2023-04-16T00:21:10;4.30;;;1.50;;
67737;SDS011;54534;43.612;1.572;2023-04-16T00:23:36;4.67;;;1.63;;
67737;SDS011;54534;43.612;1.572;2023-04-16T00:26:02;3.40;;;1.40;;
67737;SDS011;54534;43.612;1.572;2023-04-16T00:28:28;3.93;;;1.87;;
67737;SDS011;54534;43.612;1.572;2023-04-16T00:30:53;2.37;;;1.30;;
67737;SDS011;54534;43.612;1.572;2023-04-16T00:33:19;3.17;;;1.60;;
67737;SDS011;54534;43.612;1.572;2023-04-16T00:35:45;2.93;;;1.37;;
67737;SDS011;54534;43.612;1.572;2023-04-16T00:38:11;2.27;;;1.40;;
67737;SDS011;54534;43.612;1.572;2023-04-16T00:40:38;4.27;;;1.80;;
67737;SDS011;54534;43.612;1.572;2023-04-16T00:43:03;2.47;;;1.40;;
67737;SDS011;54534;43.612;1.572;2023-04-16T00:45:29;1.83;;;1.40;;
67737;SDS011;54534;43.612;1.572;2023-04-16T00:47:55;3.33;;;1.50;;
67737;SDS011;54534;43.612;1.572;2023-04-16T00:50:21;4.13;;;1.37;;
67737;SDS011;54534;43.612;1.572;2023-04-16T00:52:47;2.67;;;1.30;;
67737;SDS011;54534;43.612;1.572;2023-04-16T00:55:12;2.23;;;1.57;;
67737;SDS011;54534;43.612;1.572;2023-04-16T00:57:41;1.43;;;1.03;;
67737;SDS011;54534;43.612;1.572;2023-04-16T01:00:07;3.20;;;1.23;;
67737;SDS011;54534;43.612;1.572;2023-04-16T01:02:33;1.57;;;1.30;;
67737;SDS011;54534;43.612;1.572;2023-04-16T01:05:00;3.47;;;1.50;;
67737;SDS011;54534;43.612;1.572;2023-04-16T01:07:25;1.37;;;0.97;;
67737;SDS011;54534;43.612;1.572;2023-04-16T01:09:51;2.57;;;1.20;;
67737;SDS011;54534;43.612;1.572;2023-04-16T01:12:16;4.07;;;1.63;;
67737;SDS011;54534;43.612;1.572;2023-04-16T01:14:41;3.30;;;1.40;;
67737;SDS011;54534;43.612;1.572;2023-04-16T01:17:07;3.43;;;1.00;;
67737;SDS011;54534;43.612;1.572;2023-04-16T01:19:32;2.83;;;1.50;;
67737;SDS011;54534;43.612;1.572;2023-04-16T01:22:00;2.30;;;1.00;;
67737;SDS011;54534;43.612;1.572;2023-04-16T01:24:26;3.77;;;1.33;;
67737;SDS011;54534;43.612;1.572;2023-04-16T01:26:51;2.60;;;1.30;;
67737;SDS011;54534;43.612;1.572;2023-04-16T01:29:17;3.73;;;1.60;;
67737;SDS011;54534;43.612;1.572;2023-04-16T01:31:42;6.33;;;2.13;;
67737;SDS011;54534;43.612;1.572;2023-04-16T01:34:08;3.90;;;1.23;;
67737;SDS011;54534;43.612;1.572;2023-04-16T01:36:33;3.03;;;1.37;;
67737;SDS011;54534;43.612;1.572;2023-04-16T01:38:59;3.10;;;1.03;;
67737;SDS011;54534;43.612;1.572;2023-04-16T01:41:24;3.17;;;0.97;;
67737;SDS011;54534;43.612;1.572;2023-04-16T01:43:50;2.87;;;1.40;;
67737;SDS011;54534;43.612;1.572;2023-04-16T01:46:27;2.90;;;1.20;;
67737;SDS011;54534;43.612;1.572;2023-04-16T01:48:56;3.40;;;1.20;;
67737;SDS011;54534;43.612;1.572;2023-04-16T01:51:22;1.60;;;1.00;;
67737;SDS011;54534;43.612;1.572;2023-04-16T01:53:48;1.73;;;1.20;;
67737;SDS011;54534;43.612;1.572;2023-04-16T01:56:14;4.17;;;1.13;;
67737;SDS011;54534;43.612;1.572;2023-04-16T01:58:39;2.53;;;1.30;;
67737;SDS011;54534;43.612;1.572;2023-04-16T02:01:06;1.63;;;0.97;;
67737;SDS011;54534;43.612;1.572;2023-04-16T02:03:32;3.27;;;1.30;;
67737;SDS011;54534;43.612;1.572;2023-04-16T02:05:58;1.30;;;1.00;;
67737;SDS011;54534;43.612;1.572;2023-04-16T02:08:23;2.20;;;1.57;;
67737;SDS011;54534;43.612;1.572;2023-04-16T02:10:49;4.07;;;1.20;;
67737;SDS011;54534;43.612;1.572;2023-04-16T02:13:15;1.60;;;1.07;;
67737;SDS011;54534;43.612;1.572;2023-04-16T02:15:48;3.20;;;1.13;;
67737;SDS011;54534;43.612;1.572;2023-04-16T02:18:14;2.00;;;1.20;;
67737;SDS011;54534;43.612;1.572;2023-04-16T02:20:40;2.47;;;0.80;;
67737;SDS011;54534;43.612;1.572;2023-04-16T02:23:06;3.33;;;1.17;;
67737;SDS011;54534;43.612;1.572;2023-04-16T02:25:36;1.10;;;0.80;;
67737;SDS011;54534;43.612;1.572;2023-04-16T02:28:12;3.58;;;1.17;;
67737;SDS011;54534;43.612;1.572;2023-04-16T02:30:39;2.10;;;1.10;;
67737;SDS011;54534;43.612;1.572;2023-04-16T02:33:05;3.00;;;0.97;;
67737;SDS011;54534;43.612;1.572;2023-04-16T02:35:33;2.47;;;1.20;;
67737;SDS011;54534;43.612;1.572;2023-04-16T02:37:59;6.90;;;1.30;;
67737;SDS011;54534;43.612;1.572;2023-04-16T02:40:25;3.27;;;1.13;;
67737;SDS011;54534;43.612;1.572;2023-04-16T02:42:51;2.30;;;1.20;;
67737;SDS011;54534;43.612;1.572;2023-04-16T02:45:17;4.20;;;1.40;;
67737;SDS011;54534;43.612;1.572;2023-04-16T02:47:43;2.40;;;0.90;;
67737;SDS011;54534;43.612;1.572;2023-04-16T02:50:08;2.10;;;1.00;;
67737;SDS011;54534;43.612;1.572;2023-04-16T02:52:34;1.73;;;1.20;;
67737;SDS011;54534;43.612;1.572;2023-04-16T02:55:00;2.63;;;1.00;;
67737;SDS011;54534;43.612;1.572;2023-04-16T02:57:25;1.27;;;0.90;;
67737;SDS011;54534;43.612;1.572;2023-04-16T02:59:51;2.13;;;1.10;;
67737;SDS011;54534;43.612;1.572;2023-04-16T03:02:16;1.23;;;0.87;;
67737;SDS011;54534;43.612;1.572;2023-04-16T03:04:41;2.50;;;1.10;;
67737;SDS011;54534;43.612;1.572;2023-04-16T03:07:07;2.13;;;1.00;;
67737;SDS011;54534;43.612;1.572;2023-04-16T03:09:33;1.47;;;1.00;;
67737;SDS011;54534;43.612;1.572;2023-04-16T03:11:59;2.80;;;1.00;;
67737;SDS011;54534;43.612;1.572;2023-04-16T03:14:26;1.30;;;0.83;;
67737;SDS011;54534;43.612;1.572;2023-04-16T03:16:52;2.83;;;1.57;;
67737;SDS011;54534;43.612;1.572;2023-04-16T03:19:17;2.00;;;1.17;;
67737;SDS011;54534;43.612;1.572;2023-04-16T03:21:42;1.50;;;0.70;;
67737;SDS011;54534;43.612;1.572;2023-04-16T03:24:08;3.80;;;1.37;;
67737;SDS011;54534;43.612;1.572;2023-04-16T03:26:33;2.70;;;1.03;;
67737;SDS011;54534;43.612;1.572;2023-04-16T03:28:58;1.43;;;0.80;;
67737;SDS011;54534;43.612;1.572;2023-04-16T03:31:26;3.37;;;0.97;;
67737;SDS011;54534;43.612;1.572;2023-04-16T03:33:52;2.83;;;1.00;;
67737;SDS011;54534;43.612;1.572;2023-04-16T03:36:17;1.63;;;0.83;;
67737;SDS011;54534;43.612;1.572;2023-04-16T03:38:43;1.90;;;0.97;;
67737;SDS011;54534;43.612;1.572;2023-04-16T03:41:08;2.50;;;1.27;;
67737;SDS011;54534;43.612;1.572;2023-04-16T03:43:34;2.00;;;0.70;;
67737;SDS011;54534;43.612;1.572;2023-04-16T03:45:59;1.60;;;0.90;;
67737;SDS011;54534;43.612;1.572;2023-04-16T03:48:24;1.93;;;0.97;;
67737;SDS011;54534;43.612;1.572;2023-04-16T03:50:50;1.93;;;0.90;;
67737;SDS011;54534;43.612;1.572;2023-04-16T03:53:15;1.13;;;0.83;;
67737;SDS011;54534;43.612;1.572;2023-04-16T03:55:41;3.50;;;0.90;;
67737;SDS011;54534;43.612;1.572;2023-04-16T03:58:07;1.53;;;1.07;;
67737;SDS011;54534;43.612;1.572;2023-04-16T04:00:32;1.17;;;0.80;;
67737;SDS011;54534;43.612;1.572;2023-04-16T04:02:57;3.33;;;1.23;;
67737;SDS011;54534;43.612;1.572;2023-04-16T04:05:23;3.10;;;0.97;;
67737;SDS011;54534;43.612;1.572;2023-04-16T04:07:48;2.90;;;1.40;;
67737;SDS011;54534;43.612;1.572;2023-04-16T04:10:14;2.00;;;1.10;;
67737;SDS011;54534;43.612;1.572;2023-04-16T04:12:40;1.00;;;0.90;;
67737;SDS011;54534;43.612;1.572;2023-04-16T04:15:05;1.00;;;0.70;;
67737;SDS011;54534;43.612;1.572;2023-04-16T04:17:31;2.63;;;0.80;;
67737;SDS011;54534;43.612;1.572;2023-04-16T04:19:57;1.00;;;0.80;;
67737;SDS011;54534;43.612;1.572;2023-04-16T04:22:22;3.00;;;1.03;;
67737;SDS011;54534;43.612;1.572;2023-04-16T04:24:47;1.43;;;0.83;;
67737;SDS011;54534;43.612;1.572;2023-04-16T04:27:13;3.53;;;0.90;;
67737;SDS011;54534;43.612;1.572;2023-04-16T04:29:38;4.23;;;0.77;;
67737;SDS011;54534;43.612;1.572;2023-04-16T04:32:03;1.83;;;1.00;;
67737;SDS011;54534;43.612;1.572;2023-04-16T04:34:29;3.43;;;0.97;;
67737;SDS011;54534;43.612;1.572;2023-04-16T04:36:54;1.17;;;0.60;;
67737;SDS011;54534;43.612;1.572;2023-04-16T04:39:20;1.17;;;0.70;;
67737;SDS011;54534;43.612;1.572;2023-04-16T04:41:46;2.67;;;1.07;;
67737;SDS011;54534;43.612;1.572;2023-04-16T04:44:12;1.40;;;0.93;;
67737;SDS011;54534;43.612;1.572;2023-04-16T04:46:38;2.60;;;0.80;;
67737;SDS011;54534;43.612;1.572;2023-04-16T04:49:04;1.87;;;0.97;;
67737;SDS011;54534;43.612;1.572;2023-04-16T04:51:29;2.33;;;1.00;;
67737;SDS011;54534;43.612;1.572;2023-04-16T04:53:55;2.33;;;0.70;;
67737;SDS011;54534;43.612;1.572;2023-04-16T04:56:20;2.70;;;0.80;;
67737;SDS011;54534;43.612;1.572;2023-04-16T04:58:46;1.33;;;0.70;;
67737;SDS011;54534;43.612;1.572;2023-04-16T05:01:11;2.57;;;1.03;;
67737;SDS011;54534;43.612;1.572;2023-04-16T05:03:37;0.67;;;0.67;;
67737;SDS011;54534;43.612;1.572;2023-04-16T05:06:02;2.00;;;0.93;;
67737;SDS011;54534;43.612;1.572;2023-04-16T05:08:27;0.97;;;0.83;;
67737;SDS011;54534;43.612;1.572;2023-04-16T05:10:53;2.33;;;0.93;;
67737;SDS011;54534;43.612;1.572;2023-04-16T05:13:18;1.10;;;0.80;;
67737;SDS011;54534;43.612;1.572;2023-04-16T05:15:43;1.60;;;0.80;;
67737;SDS011;54534;43.612;1.572;2023-04-16T05:18:09;1.03;;;0.70;;
67737;SDS011;54534;43.612;1.572;2023-04-16T05:20:35;1.60;;;0.77;;
67737;SDS011;54534;43.612;1.572;2023-04-16T05:23:01;1.53;;;0.70;;
67737;SDS011;54534;43.612;1.572;2023-04-16T05:25:27;1.97;;;0.80;;
67737;SDS011;54534;43.612;1.572;2023-04-16T05:27:52;1.37;;;0.70;;
67737;SDS011;54534;43.612;1.572;2023-04-16T05:30:18;0.90;;;0.80;;
67737;SDS011;54534;43.612;1.572;2023-04-16T05:32:43;2.43;;;0.90;;
67737;SDS011;54534;43.612;1.572;2023-04-16T05:35:08;2.30;;;1.00;;
67737;SDS011;54534;43.612;1.572;2023-04-16T05:37:34;1.83;;;0.90;;
67737;SDS011;54534;43.612;1.572;2023-04-16T05:40:00;3.20;;;0.70;;
67737;SDS011;54534;43.612;1.572;2023-04-16T05:42:26;1.60;;;0.80;;
67737;SDS011;54534;43.612;1.572;2023-04-16T05:44:51;1.83;;;0.70;;
67737;SDS011;54534;43.612;1.572;2023-04-16T05:47:17;1.57;;;0.80;;
67737;SDS011;54534;43.612;1.572;2023-04-16T05:49:42;1.53;;;0.70;;
67737;SDS011;54534;43.612;1.572;2023-04-16T05:52:07;1.63;;;0.67;;
67737;SDS011;54534;43.612;1.572;2023-04-16T05:54:33;3.83;;;1.07;;
67737;SDS011;54534;43.612;1.572;2023-04-16T05:56:59;1.63;;;0.80;;
67737;SDS011;54534;43.612;1.572;2023-04-16T05:59:25;1.60;;;0.80;;
67737;SDS011;54534;43.612;1.572;2023-04-16T06:01:51;2.93;;;0.83;;
67737;SDS011;54534;43.612;1.572;2023-04-16T06:04:16;1.10;;;0.60;;
67737;SDS011;54534;43.612;1.572;2023-04-16T06:06:42;4.27;;;1.40;;
67737;SDS011;54534;43.612;1.572;2023-04-16T06:09:07;1.97;;;0.80;;
67737;SDS011;54534;43.612;1.572;2023-04-16T06:11:32;3.33;;;1.00;;
67737;SDS011;54534;43.612;1.572;2023-04-16T06:13:58;0.73;;;0.60;;
67737;SDS011;54534;43.612;1.572;2023-04-16T06:16:23;0.63;;;0.50;;
67737;SDS011;54534;43.612;1.572;2023-04-16T06:18:49;1.30;;;0.83;;
67737;SDS011;54534;43.612;1.572;2023-04-16T06:21:14;1.30;;;0.60;;
67737;SDS011;54534;43.612;1.572;2023-04-16T06:23:40;1.00;;;0.60;;
67737;SDS011;54534;43.612;1.572;2023-04-16T06:26:05;1.57;;;0.73;;
67737;SDS011;54534;43.612;1.572;2023-04-16T06:28:31;1.33;;;0.70;;
67737;SDS011;54534;43.612;1.572;2023-04-16T06:30:56;2.73;;;1.03;;
67737;SDS011;54534;43.612;1.572;2023-04-16T06:33:22;1.20;;;0.80;;
67737;SDS011;54534;43.612;1.572;2023-04-16T06:35:47;2.43;;;0.90;;
67737;SDS011;54534;43.612;1.572;2023-04-16T06:38:13;2.47;;;0.90;;
67737;SDS011;54534;43.612;1.572;2023-04-16T06:40:39;4.57;;;0.73;;
67737;SDS011;54534;43.612;1.572;2023-04-16T06:43:04;2.93;;;0.80;;
67737;SDS011;54534;43.612;1.572;2023-04-16T06:45:30;7.63;;;1.00;;
67737;SDS011;54534;43.612;1.572;2023-04-16T06:47:56;9.90;;;1.07;;
67737;SDS011;54534;43.612;1.572;2023-04-16T06:50:23;5.23;;;0.80;;
67737;SDS011;54534;43.612;1.572;2023-04-16T06:52:50;11.10;;;1.63;;
67737;SDS011;54534;43.612;1.572;2023-04-16T06:55:16;14.03;;;1.30;;
67737;SDS011;54534;43.612;1.572;2023-04-16T06:57:41;7.60;;;1.00;;
67737;SDS011;54534;43.612;1.572;2023-04-16T07:00:07;11.97;;;1.47;;
67737;SDS011;54534;43.612;1.572;2023-04-16T07:02:33;7.13;;;1.20;;
67737;SDS011;54534;43.612;1.572;2023-04-16T07:04:58;3.57;;;1.00;;
67737;SDS011;54534;43.612;1.572;2023-04-16T07:07:24;2.93;;;1.30;;
67737;SDS011;54534;43.612;1.572;2023-04-16T07:09:49;6.33;;;1.17;;
67737;SDS011;54534;43.612;1.572;2023-04-16T07:12:14;5.87;;;0.80;;
67737;SDS011;54534;43.612;1.572;2023-04-16T07:14:40;3.63;;;0.80;;
67737;SDS011;54534;43.612;1.572;2023-04-16T07:17:05;10.03;;;1.20;;
67737;SDS011;54534;43.612;1.572;2023-04-16T07:19:31;8.17;;;1.20;;
67737;SDS011;54534;43.612;1.572;2023-04-16T07:21:57;1.87;;;0.90;;
67737;SDS011;54534;43.612;1.572;2023-04-16T07:24:26;2.85;;;0.90;;
67737;SDS011;54534;43.612;1.572;2023-04-16T07:26:51;3.80;;;1.00;;
67737;SDS011;54534;43.612;1.572;2023-04-16T07:29:16;2.47;;;1.00;;
67737;SDS011;54534;43.612;1.572;2023-04-16T07:31:42;6.37;;;1.00;;
67737;SDS011;54534;43.612;1.572;2023-04-16T07:34:08;5.20;;;0.97;;
67737;SDS011;54534;43.612;1.572;2023-04-16T07:36:33;4.77;;;0.90;;
67737;SDS011;54534;43.612;1.572;2023-04-16T07:38:59;2.20;;;0.90;;
67737;SDS011;54534;43.612;1.572;2023-04-16T07:41:25;4.10;;;0.60;;
67737;SDS011;54534;43.612;1.572;2023-04-16T07:43:50;4.50;;;1.07;;
67737;SDS011;54534;43.612;1.572;2023-04-16T07:46:15;3.53;;;0.70;;
67737;SDS011;54534;43.612;1.572;2023-04-16T07:48:41;3.17;;;1.47;;
67737;SDS011;54534;43.612;1.572;2023-04-16T07:51:07;3.33;;;1.10;;
67737;SDS011;54534;43.612;1.572;2023-04-16T07:53:32;7.40;;;0.97;;
67737;SDS011;54534;43.612;1.572;2023-04-16T07:55:57;4.47;;;0.90;;
67737;SDS011;54534;43.612;1.572;2023-04-16T07:58:23;98.67;;;4.93;;
67737;SDS011;54534;43.612;1.572;2023-04-16T08:00:48;71.10;;;6.27;;
67737;SDS011;54534;43.612;1.572;2023-04-16T08:03:14;41.30;;;2.97;;
67737;SDS011;54534;43.612;1.572;2023-04-16T08:05:40;33.40;;;2.50;;
67737;SDS011;54534;43.612;1.572;2023-04-16T08:08:05;43.20;;;4.30;;
67737;SDS011;54534;43.612;1.572;2023-04-16T08:10:31;51.10;;;4.57;;
67737;SDS011;54534;43.612;1.572;2023-04-16T08:12:58;15.63;;;1.93;;
67737;SDS011;54534;43.612;1.572;2023-04-16T08:15:25;12.07;;;1.97;;
67737;SDS011;54534;43.612;1.572;2023-04-16T08:17:50;22.17;;;1.73;;
67737;SDS011;54534;43.612;1.572;2023-04-16T08:20:16;16.07;;;1.67;;
67737;SDS011;54534;43.612;1.572;2023-04-16T08:22:41;18.30;;;3.23;;
67737;SDS011;54534;43.612;1.572;2023-04-16T08:25:07;10.03;;;1.67;;
67737;SDS011;54534;43.612;1.572;2023-04-16T08:27:32;12.23;;;1.83;;
67737;SDS011;54534;43.612;1.572;2023-04-16T08:29:58;6.37;;;1.20;;
67737;SDS011;54534;43.612;1.572;2023-04-16T08:32:23;6.60;;;1.40;;
67737;SDS011;54534;43.612;1.572;2023-04-16T08:34:49;8.37;;;1.50;;
67737;SDS011;54534;43.612;1.572;2023-04-16T08:37:15;14.53;;;2.00;;
67737;SDS011;54534;43.612;1.572;2023-04-16T08:39:40;10.97;;;1.53;;
67737;SDS011;54534;43.612;1.572;2023-04-16T08:42:05;10.50;;;1.40;;
67737;SDS011;54534;43.612;1.572;2023-04-16T08:44:40;9.73;;;1.50;;
67737;SDS011;54534;43.612;1.572;2023-04-16T08:47:11;5.13;;;1.43;;
67737;SDS011;54534;43.612;1.572;2023-04-16T08:49:42;6.67;;;1.30;;
67737;SDS011;54534;43.612;1.572;2023-04-16T08:52:11;5.80;;;1.33;;
67737;SDS011;54534;43.612;1.572;2023-04-16T08:54:45;6.53;;;1.40;;
67737;SDS011;54534;43.612;1.572;2023-04-16T08:57:21;10.07;;;2.20;;
67737;SDS011;54534;43.612;1.572;2023-04-16T08:59:50;10.70;;;1.50;;
67737;SDS011;54534;43.612;1.572;2023-04-16T09:02:16;7.67;;;1.27;;
67737;SDS011;54534;43.612;1.572;2023-04-16T09:04:42;8.77;;;1.43;;
67737;SDS011;54534;43.612;1.572;2023-04-16T09:07:08;9.70;;;1.30;;
67737;SDS011;54534;43.612;1.572;2023-04-16T09:09:34;5.03;;;1.50;;
67737;SDS011;54534;43.612;1.572;2023-04-16T09:12:02;8.47;;;1.33;;
67737;SDS011;54534;43.612;1.572;2023-04-16T09:14:28;4.73;;;1.20;;
67737;SDS011;54534;43.612;1.572;2023-04-16T09:16:54;11.93;;;1.40;;
67737;SDS011;54534;43.612;1.572;2023-04-16T09:19:22;13.30;;;1.30;;
67737;SDS011;54534;43.612;1.572;2023-04-16T09:21:48;4.00;;;1.30;;
67737;SDS011;54534;43.612;1.572;2023-04-16T09:24:13;4.23;;;1.00;;
67737;SDS011;54534;43.612;1.572;2023-04-16T09:26:42;25.50;;;1.77;;
67737;SDS011;54534;43.612;1.572;2023-04-16T09:29:08;25.77;;;1.70;;
67737;SDS011;54534;43.612;1.572;2023-04-16T09:31:33;12.87;;;1.73;;
67737;SDS011;54534;43.612;1.572;2023-04-16T09:34:06;14.60;;;2.57;;
67737;SDS011;54534;43.612;1.572;2023-04-16T09:36:33;13.17;;;1.20;;
67737;SDS011;54534;43.612;1.572;2023-04-16T09:38:59;8.30;;;1.37;;
67737;SDS011;54534;43.612;1.572;2023-04-16T09:41:27;9.67;;;1.40;;
67737;SDS011;54534;43.612;1.572;2023-04-16T09:46:20;9.83;;;1.40;;
67737;SDS011;54534;43.612;1.572;2023-04-16T09:48:46;5.63;;;1.67;;
67737;SDS011;54534;43.612;1.572;2023-04-16T09:51:11;4.60;;;1.17;;
67737;SDS011;54534;43.612;1.572;2023-04-16T09:53:37;4.57;;;1.50;;
67737;SDS011;54534;43.612;1.572;2023-04-16T09:56:04;7.50;;;1.50;;
67737;SDS011;54534;43.612;1.572;2023-04-16T09:58:30;7.90;;;1.37;;
67737;SDS011;54534;43.612;1.572;2023-04-16T10:03:31;6.50;;;1.20;;
67737;SDS011;54534;43.612;1.572;2023-04-16T10:05:58;7.13;;;1.30;;
67737;SDS011;54534;43.612;1.572;2023-04-16T10:08:25;11.07;;;1.50;;
67737;SDS011;54534;43.612;1.572;2023-04-16T10:10:52;16.77;;;1.53;;
67737;SDS011;54534;43.612;1.572;2023-04-16T10:13:18;6.97;;;1.20;;
67737;SDS011;54534;43.612;1.572;2023-04-16T10:15:43;7.23;;;1.60;;
67737;SDS011;54534;43.612;1.572;2023-04-16T10:18:09;5.60;;;1.00;;
67737;SDS011;54534;43.612;1.572;2023-04-16T10:20:35;3.63;;;2.07;;
67737;SDS011;54534;43.612;1.572;2023-04-16T10:23:01;4.80;;;1.10;;
67737;SDS011;54534;43.612;1.572;2023-04-16T10:25:27;7.10;;;1.00;;
67737;SDS011;54534;43.612;1.572;2023-04-16T10:27:52;4.83;;;1.20;;
67737;SDS011;54534;43.612;1.572;2023-04-16T10:30:20;4.27;;;1.00;;
67737;SDS011;54534;43.612;1.572;2023-04-16T10:32:46;2.80;;;1.10;;
67737;SDS011;54534;43.612;1.572;2023-04-16T10:35:18;10.43;;;1.73;;
67737;SDS011;54534;43.612;1.572;2023-04-16T10:37:43;3.50;;;1.20;;
67737;SDS011;54534;43.612;1.572;2023-04-16T10:40:22;8.27;;;1.50;;
67737;SDS011;54534;43.612;1.572;2023-04-16T10:42:57;3.53;;;1.20;;
67737;SDS011;54534;43.612;1.572;2023-04-16T10:45:30;5.00;;;1.20;;
67737;SDS011;54534;43.612;1.572;2023-04-16T10:47:57;3.50;;;1.10;;
67737;SDS011;54534;43.612;1.572;2023-04-16T10:50:22;1.83;;;0.90;;
67737;SDS011;54534;43.612;1.572;2023-04-16T10:52:48;4.13;;;1.17;;
67737;SDS011;54534;43.612;1.572;2023-04-16T10:55:17;4.00;;;1.50;;
67737;SDS011;54534;43.612;1.572;2023-04-16T10:57:42;6.10;;;1.03;;
67737;SDS011;54534;43.612;1.572;2023-04-16T11:00:29;6.03;;;1.10;;
67737;SDS011;54534;43.612;1.572;2023-04-16T11:02:53;4.30;;;1.00;;
67737;SDS011;54534;43.612;1.572;2023-04-16T11:05:22;1.47;;;0.90;;
67737;SDS011;54534;43.612;1.572;2023-04-16T11:07:48;7.00;;;1.00;;
67737;SDS011;54534;43.612;1.572;2023-04-16T11:10:13;3.33;;;1.00;;
67737;SDS011;54534;43.612;1.572;2023-04-16T11:15:06;3.70;;;1.30;;
67737;SDS011;54534;43.612;1.572;2023-04-16T11:20:04;4.43;;;1.20;;
67737;SDS011;54534;43.612;1.572;2023-04-16T11:22:41;3.57;;;1.17;;
67737;SDS011;54534;43.612;1.572;2023-04-16T11:25:09;3.80;;;1.10;;
67737;SDS011;54534;43.612;1.572;2023-04-16T11:27:34;2.33;;;0.90;;
67737;SDS011;54534;43.612;1.572;2023-04-16T11:30:00;9.00;;;1.50;;
67737;SDS011;54534;43.612;1.572;2023-04-16T11:32:35;9.87;;;1.60;;
67737;SDS011;54534;43.612;1.572;2023-04-16T11:35:02;25.10;;;3.57;;
67737;SDS011;54534;43.612;1.572;2023-04-16T11:37:36;28.40;;;3.80;;
67737;SDS011;54534;43.612;1.572;2023-04-16T11:40:03;13.27;;;1.20;;
67737;SDS011;54534;43.612;1.572;2023-04-16T11:42:38;19.85;;;2.00;;
67737;SDS011;54534;43.612;1.572;2023-04-16T11:45:05;19.97;;;1.50;;
67737;SDS011;54534;43.612;1.572;2023-04-16T11:47:32;14.83;;;1.80;;
67737;SDS011;54534;43.612;1.572;2023-04-16T11:50:24;15.43;;;1.63;;
67737;SDS011;54534;43.612;1.572;2023-04-16T11:52:52;23.00;;;4.67;;
67737;SDS011;54534;43.612;1.572;2023-04-16T11:55:19;21.40;;;6.37;;
67737;SDS011;54534;43.612;1.572;2023-04-16T11:57:45;16.80;;;5.97;;
67737;SDS011;54534;43.612;1.572;2023-04-16T12:00:11;23.80;;;9.10;;
67737;SDS011;54534;43.612;1.572;2023-04-16T12:08:03;30.90;;;7.87;;
67737;SDS011;54534;43.612;1.572;2023-04-16T12:10:37;22.53;;;8.37;;
67737;SDS011;54534;43.612;1.572;2023-04-16T12:13:18;29.83;;;8.67;;
67737;SDS011;54534;43.612;1.572;2023-04-16T12:18:16;45.77;;;12.10;;
67737;SDS011;54534;43.612;1.572;2023-04-16T12:20:43;63.20;;;14.53;;
67737;SDS011;54534;43.612;1.572;2023-04-16T12:23:10;66.10;;;17.73;;
67737;SDS011;54534;43.612;1.572;2023-04-16T12:25:46;69.77;;;16.70;;
67737;SDS011;54534;43.612;1.572;2023-04-16T12:28:13;59.10;;;16.53;;
67737;SDS011;54534;43.612;1.572;2023-04-16T12:30:47;55.23;;;16.17;;
67737;SDS011;54534;43.612;1.572;2023-04-16T12:33:15;51.33;;;13.53;;
67737;SDS011;54534;43.612;1.572;2023-04-16T12:35:42;57.77;;;15.37;;
67737;SDS011;54534;43.612;1.572;2023-04-16T12:38:08;54.93;;;15.00;;
67737;SDS011;54534;43.612;1.572;2023-04-16T12:40:35;28.03;;;10.20;;
67737;SDS011;54534;43.612;1.572;2023-04-16T12:43:01;30.63;;;9.23;;
67737;SDS011;54534;43.612;1.572;2023-04-16T12:45:27;28.80;;;9.07;;
67737;SDS011;54534;43.612;1.572;2023-04-16T12:47:52;19.87;;;6.97;;
67737;SDS011;54534;43.612;1.572;2023-04-16T12:50:18;19.40;;;7.03;;
67737;SDS011;54534;43.612;1.572;2023-04-16T12:52:43;23.20;;;6.30;;
67737;SDS011;54534;43.612;1.572;2023-04-16T12:55:09;18.17;;;6.50;;
67737;SDS011;54534;43.612;1.572;2023-04-16T12:57:34;18.90;;;5.37;;
67737;SDS011;54534;43.612;1.572;2023-04-16T13:00:00;12.67;;;3.20;;
67737;SDS011;54534;43.612;1.572;2023-04-16T13:02:25;5.00;;;2.53;;
67737;SDS011;54534;43.612;1.572;2023-04-16T13:04:51;4.47;;;2.00;;
67737;SDS011;54534;43.612;1.572;2023-04-16T13:07:17;3.90;;;1.50;;
67737;SDS011;54534;43.612;1.572;2023-04-16T13:09:43;13.03;;;1.27;;
67737;SDS011;54534;43.612;1.572;2023-04-16T13:12:09;2.77;;;1.20;;
67737;SDS011;54534;43.612;1.572;2023-04-16T13:14:35;4.40;;;1.30;;
67737;SDS011;54534;43.612;1.572;2023-04-16T13:17:01;3.87;;;1.53;;
67737;SDS011;54534;43.612;1.572;2023-04-16T13:19:27;2.53;;;1.40;;
67737;SDS011;54534;43.612;1.572;2023-04-16T13:21:53;1.80;;;1.00;;
67737;SDS011;54534;43.612;1.572;2023-04-16T13:24:18;4.00;;;1.10;;
67737;SDS011;54534;43.612;1.572;2023-04-16T13:26:44;5.23;;;1.10;;
67737;SDS011;54534;43.612;1.572;2023-04-16T13:29:09;3.70;;;1.03;;
67737;SDS011;54534;43.612;1.572;2023-04-16T13:31:35;5.67;;;1.10;;
67737;SDS011;54534;43.612;1.572;2023-04-16T13:34:00;18.20;;;1.93;;
67737;SDS011;54534;43.612;1.572;2023-04-16T13:36:27;13.10;;;1.67;;
67737;SDS011;54534;43.612;1.572;2023-04-16T13:38:54;6.80;;;1.33;;
67737;SDS011;54534;43.612;1.572;2023-04-16T13:41:19;4.83;;;1.40;;
67737;SDS011;54534;43.612;1.572;2023-04-16T13:43:45;6.93;;;1.23;;
67737;SDS011;54534;43.612;1.572;2023-04-16T13:46:10;5.93;;;1.00;;
67737;SDS011;54534;43.612;1.572;2023-04-16T13:48:36;4.00;;;0.93;;
67737;SDS011;54534;43.612;1.572;2023-04-16T13:51:02;2.10;;;1.10;;
67737;SDS011;54534;43.612;1.572;2023-04-16T13:53:27;4.77;;;1.20;;
67737;SDS011;54534;43.612;1.572;2023-04-16T13:55:53;2.47;;;0.90;;
67737;SDS011;54534;43.612;1.572;2023-04-16T13:58:18;5.53;;;0.90;;
67737;SDS011;54534;43.612;1.572;2023-04-16T14:00:44;4.10;;;0.80;;
67737;SDS011;54534;43.612;1.572;2023-04-16T14:03:10;2.23;;;1.07;;
67737;SDS011;54534;43.612;1.572;2023-04-16T14:05:35;4.83;;;1.67;;
67737;SDS011;54534;43.612;1.572;2023-04-16T14:08:00;1.97;;;0.90;;
67737;SDS011;54534;43.612;1.572;2023-04-16T14:10:26;5.00;;;1.07;;
67737;SDS011;54534;43.612;1.572;2023-04-16T14:12:51;4.37;;;1.13;;
67737;SDS011;54534;43.612;1.572;2023-04-16T14:15:16;1.77;;;0.80;;
67737;SDS011;54534;43.612;1.572;2023-04-16T14:17:42;1.83;;;0.83;;
67737;SDS011;54534;43.612;1.572;2023-04-16T14:20:09;2.20;;;0.90;;
67737;SDS011;54534;43.612;1.572;2023-04-16T14:25:04;3.57;;;1.00;;
67737;SDS011;54534;43.612;1.572;2023-04-16T14:27:31;1.33;;;1.00;;
67737;SDS011;54534;43.612;1.572;2023-04-16T14:29:58;1.60;;;0.97;;
67737;SDS011;54534;43.612;1.572;2023-04-16T14:32:23;1.33;;;0.93;;
67737;SDS011;54534;43.612;1.572;2023-04-16T14:34:48;2.03;;;1.10;;
67737;SDS011;54534;43.612;1.572;2023-04-16T14:37:14;1.87;;;1.10;;
67737;SDS011;54534;43.612;1.572;2023-04-16T14:39:41;1.60;;;0.97;;
67737;SDS011;54534;43.612;1.572;2023-04-16T14:42:07;2.80;;;1.23;;
67737;SDS011;54534;43.612;1.572;2023-04-16T14:44:32;0.90;;;0.80;;
67737;SDS011;54534;43.612;1.572;2023-04-16T14:46:57;3.93;;;0.90;;
67737;SDS011;54534;43.612;1.572;2023-04-16T14:49:24;1.73;;;0.70;;
67737;SDS011;54534;43.612;1.572;2023-04-16T14:51:50;5.33;;;1.10;;
67737;SDS011;54534;43.612;1.572;2023-04-16T14:54:16;2.27;;;1.00;;
67737;SDS011;54534;43.612;1.572;2023-04-16T14:56:43;3.27;;;1.10;;
67737;SDS011;54534;43.612;1.572;2023-04-16T14:59:08;3.17;;;1.37;;
67737;SDS011;54534;43.612;1.572;2023-04-16T15:01:34;9.40;;;2.43;;